Adams Run, SC (29426)

3:11 PM EDT on March 28, 2017 (GMT -0400)
Jacksonboro | | Change Station
Active Advisory: Coastal Hazard Statement Active Notice: Coastal Hazard Statement

Elev 55 ft 32.78 °N, 80.47 °W | Updated 6 minutes ago

Partly Cloudy
Partly Cloudy
84.3 °F
Feels Like 85 °F
N
5.0
Wind Variable Wind from NW
Gusts 16.0 mph

Today
High -- | Low -- °F
--% Chance of Precip.
Yesterday
High -- | Low -- °F
Precip. -- in
Pressure 29.93 in
Visibility 10.0 miles
Clouds Mostly Cloudy 6000 ft
Mostly Cloudy 7000 ft
Heat Index 85 °F
Dew Point 61 °F
Humidity 46%
Rainfall 0.00 in
Snow Depth Not available.
7:14 AM 7:38 PM
New Moon, 1% visible
METAR KRBW 281855Z AUTO 26011G19KT 10SM BKN060 BKN070 28/14 A2993 RMK AO2
Pressure 29.93 in
Visibility 10.0 miles
Clouds Mostly Cloudy 6000 ft
Mostly Cloudy 7000 ft
Heat Index 85 °F
Dew Point 61 °F
Humidity 46%
Rainfall 0.00 in
Snow Depth Not available.
7:14 AM 7:38 PM
New Moon, 1% visible
METAR KRBW 281855Z AUTO 26011G19KT 10SM BKN060 BKN070 28/14 A2993 RMK AO2

Get Your Daily Forecast Email!

Thanks for signing up!

Be on the lookout for a verification email in your inbox.

You'll start receiving severe weather alerts in your inbox..

×

10-Day Weather Forecast

Almanac

Astronomy

Mar. 28, 2017 Rise Set
Actual Time
Civil Twilight
Nautical Twilight
Astronomical Twilight
Moon
Length of Visible Light
Length of Day
Tomorrow will be .
, % of the Moon is Illuminated

Today's Extremes

State Highs State Lows

Community

WunderPhotos

Upload Photos

1,962,540 photos uploaded!

WunderBlog® & News

Nearby

Air Quality

  Air Quality AQ Index Pollutant
Not available.

Snow Depth

Station Depth Elevation

Earthquake Activity

City Distance Mag. Time & Date
Minimum magnitude displayed is 2.5.

Earthquake Activity

City Distance Mag. Time & Date
Minimum magnitude displayed is 2.5.

Coastal Water Temperatures

Place Temperature

Stations

Nearby Weather Stations

Station Location Temp. Windchill Dew Point Humidity Wind Precip. Elev Updated Type
                   

Watches & Warnings

Coastal Hazard Statement
Issued: 10:40 AM EDT Mar. 28, 2017 – National Weather Service

... High rip current risk remains in effect until 8 PM EDT this
evening...

* rip currents... wind and wave conditions support the
development of very strong rip currents. These rip currents
will be life threatening to anyone who enters the surf.

Precautionary/preparedness actions...

No one should enter the surf due to life threatening rip
currents.